Aeroporto :
LOGIN :

Iscrizione | Disclaimer

   EN    FR    IT 

 










Sommario :    VFR   VFR Marginale   IFR   IFR Intensivo   IFR Molto Intensivo
Visibilità : 
Base nubi : 
>= 8 km
>= 3000ft
5 / 8 km
1000 / 3000 ft
1500m / 5 km
500 / 1000 ft
800 / 1500m
200 / 500 ft
< 800m
< 200 ft
Simboli :   Temporali  Nebbia  Neve Forte  Precipitazioni Forti  Vento > 20 kt
SIGMETs :   Varie  Temporali  Ghiacco  Turbolenza  Onda orograficha  Ceneri Vulcaniche







- Altitudine del aeroporto : 464 ft
- Codice IATA : EVX
- Carte del aeroporto


LFOE - Evreux

ULTIMO METAR :
  • 161530Z AUTO 32009KT 280V350 CAVOK 24/15 Q1021 NOSIG

METARs OBSOLETI :
  • 161500Z AUTO 33009KT 270V030 CAVOK 25/15 Q1021 NOSIG
  • 161430Z AUTO 32008KT 280V020 CAVOK 26/14 Q1021 NOSIG
  • 161400Z AUTO 31007KT 270V350 9000 NSC 25/14 Q1021 NOSIG
  • 161330Z AUTO 29008KT 260V350 CAVOK 26/14 Q1021 NOSIG
  • 161300Z AUTO VRB05KT CAVOK 25/14 Q1021 NOSIG

TAF TAF LFOE
Valido dal 16 a 15 ore il 17 a 15 ore UTC


161400Z 1615/1715 31008KT CAVOK
BECMG 1620/1622 BKN007 OVC010
BECMG 1622/1624 4000 BR BKN004
PROB40
TEMPO 1700/1707 2000 -DZRA BKN002
PROB30
TEMPO 1701/1705 0800 BCFG
BECMG 1707/1709 04010KT 9999 NSW BKN020
Nessun NOTAM noto per questo aeroporto.



MetMap, La meteo Aeronautica in un colpo d'occhio ! - Copyright ORBIFLY Dicembre 2007 - Disclaimer

ORBIFLY MET'MAP TEAM :

Programmazione e sviluppo : Alexandra Zaïnal
Concezione e sviluppo : Baudouin d'Aumeries
Co-Programmazione e sviluppo : Marc-Olivier Méhu
Supporto tecnico e logistico : Manuel Goepfert
Aiuto per la traduzione : Arnaldo La Scala

Contatto : metmap@orbifly.com




FONTI E CREDITI :

   NOAA